Time;durP1;ratioP1;P1;durP2;ratioP2;P2;SDS_P1;SDS_P2;PMS_P1;PMS_P2;Temp;Humidity;BMP_temperature;BMP_pressure;BME280_temperature;BME280_humidity;BME280_pressure;Samples;Min_cycle;Max_cycle;Signal;HPM_P1;HPM_P2
2023/04/19 00:01:28;;;;;;;10.63;6.18;;;;;;;13.63;76.35;101502.63;8291556;28;20107;-58
2023/04/19 00:05:28;;;;;;;7.25;5.75;;;;;;;13.64;76.50;101501.66;8293150;28;20042;-58
2023/04/19 00:09:29;;;;;;;8.20;5.63;;;;;;;13.67;76.11;101504.09;8293070;28;20037;-58
2023/04/19 00:13:29;;;;;;;7.72;5.57;;;;;;;13.66;76.21;101494.22;8292477;28;20069;-60
2023/04/19 00:17:30;;;;;;;8.55;6.30;;;;;;;13.63;76.35;101499.91;8292517;28;20042;-61
2023/04/19 00:21:31;;;;;;;8.38;6.20;;;;;;;13.58;76.84;101496.78;8292156;28;20396;-61
2023/04/19 00:25:33;;;;;;;11.50;7.97;;;;;;;13.55;76.95;101497.03;8292300;28;20077;-61
2023/04/19 00:29:33;;;;;;;10.50;7.47;;;;;;;13.49;77.47;101489.44;8314116;28;20045;-60
2023/04/19 00:33:34;;;;;;;9.98;7.97;;;;;;;13.47;77.80;101497.72;8291949;28;20132;-60
2023/04/19 00:37:35;;;;;;;11.68;8.00;;;;;;;13.48;78.13;101494.00;8291813;28;20455;-60
2023/04/19 00:41:35;;;;;;;12.77;7.75;;;;;;;13.46;78.32;101492.41;8291533;28;20030;-58
2023/04/19 00:45:37;;;;;;;12.30;7.53;;;;;;;13.43;78.84;101489.97;8291778;28;20165;-57
2023/04/19 00:49:39;;;;;;;15.98;9.18;;;;;;;13.44;78.80;101489.84;8291986;28;20042;-58
2023/04/19 00:53:40;;;;;;;15.10;8.77;;;;;;;13.45;78.55;101490.72;8291122;28;20069;-58
2023/04/19 00:57:41;;;;;;;12.18;8.27;;;;;;;13.45;78.75;101490.72;8291807;28;20045;-63
2023/04/19 01:01:43;;;;;;;10.82;8.00;;;;;;;13.45;78.91;101493.41;8298239;28;20064;-64
2023/04/19 01:05:43;;;;;;;12.18;8.23;;;;;;;13.34;79.54;101480.78;8226857;28;20045;-64
2023/04/19 01:09:46;;;;;;;11.98;7.97;;;;;;;13.26;80.09;101479.72;8226457;28;20506;-64
2023/04/19 01:13:47;;;;;;;9.73;7.28;;;;;;;13.20;79.89;101461.22;8225892;28;20454;-64
2023/04/19 01:17:47;;;;;;;12.90;7.97;;;;;;;13.07;80.98;101474.16;8226614;28;20118;-64
2023/04/19 01:21:48;;;;;;;12.75;7.72;;;;;;;13.05;81.07;101470.75;8247515;28;20040;-64
2023/04/19 01:25:49;;;;;;;12.40;7.55;;;;;;;13.02;81.01;101471.00;8291122;28;20508;-64
2023/04/19 01:29:49;;;;;;;10.07;7.55;;;;;;;13.02;81.25;101473.72;8290866;28;20448;-65
2023/04/19 01:33:51;;;;;;;10.75;7.05;;;;;;;12.94;81.91;101478.91;8290641;28;20038;-64
2023/04/19 01:37:54;;;;;;;10.82;7.25;;;;;;;12.80;83.08;101476.50;8290839;28;20064;-64
2023/04/19 01:41:54;;;;;;;9.25;7.43;;;;;;;12.69;83.58;101468.44;8290634;28;20034;-64
2023/04/19 01:45:55;;;;;;;12.93;8.23;;;;;;;12.52;84.38;101466.28;8291016;28;20048;-64
2023/04/19 01:49:55;;;;;;;12.45;7.63;;;;;;;12.44;84.67;101460.69;8290760;28;20041;-64
2023/04/19 01:53:57;;;;;;;12.48;7.95;;;;;;;12.32;85.35;101456.28;8288586;28;20515;-64
2023/04/19 01:57:57;;;;;;;9.82;7.53;;;;;;;12.26;85.59;101443.25;8290454;28;20045;-59
2023/04/19 02:01:58;;;;;;;12.85;8.18;;;;;;;12.26;85.67;101454.91;8290247;28;20093;-59
2023/04/19 02:05:58;;;;;;;15.85;8.60;;;;;;;12.11;86.20;101445.38;8290887;28;20042;-64
2023/04/19 02:09:59;;;;;;;14.88;10.23;;;;;;;11.98;87.07;101441.94;8290490;28;20355;-64
2023/04/19 02:14:00;;;;;;;15.75;11.25;;;;;;;11.84;87.82;101448.50;8289345;28;20062;-64
2023/04/19 02:18:01;;;;;;;19.67;13.10;;;;;;;11.83;88.27;101440.50;8290690;28;20049;-64
2023/04/19 02:22:01;;;;;;;16.10;12.00;;;;;;;11.72;88.71;101437.84;8294278;28;20451;-59
2023/04/19 02:26:02;;;;;;;20.13;13.18;;;;;;;11.65;89.29;101440.16;8294347;28;20422;-59
2023/04/19 02:30:03;;;;;;;17.50;13.25;;;;;;;11.53;90.08;101446.53;8293919;28;20065;-59
2023/04/19 02:34:07;;;;;;;21.80;13.93;;;;;;;11.45;90.59;101438.19;8294574;28;20037;-59
2023/04/19 02:38:08;;;;;;;22.60;14.23;;;;;;;11.40;91.57;101437.69;8296624;28;20042;-62
2023/04/19 02:42:08;;;;;;;20.88;13.88;;;;;;;11.44;91.24;101439.16;8296029;28;20459;-60
2023/04/19 02:46:09;;;;;;;21.67;15.20;;;;;;;11.39;91.56;101438.69;8291100;28;20041;-62
2023/04/19 02:50:10;;;;;;;24.27;15.13;;;;;;;11.41;92.38;101439.41;8263243;28;20387;-62
2023/04/19 02:54:18;;;;;;;20.92;14.27;;;;;;;11.45;92.04;101446.31;8293894;28;20034;-62
2023/04/19 02:58:19;;;;;;;24.33;15.73;;;;;;;11.47;92.19;101438.91;8295385;28;20041;-66
2023/04/19 03:02:38;;;;;;;24.27;16.45;;;;;;;11.57;91.94;101433.63;8294688;28;20033;-63
2023/04/19 03:06:40;;;;;;;30.35;17.80;;;;;;;11.67;91.50;101435.50;8295083;28;20057;-60
2023/04/19 03:10:41;;;;;;;30.98;16.58;;;;;;;11.74;90.85;101436.72;8294177;28;20037;-60
2023/04/19 03:14:43;;;;;;;31.20;18.95;;;;;;;11.78;90.85;101438.16;8293381;28;20049;-60
2023/04/19 03:18:43;;;;;;;30.50;19.30;;;;;;;11.91;90.13;101432.63;8294810;28;20042;-61
2023/04/19 03:22:45;;;;;;;29.80;18.75;;;;;;;11.93;90.00;101426.06;8294003;28;20049;-60
2023/04/19 03:26:46;;;;;;;31.27;19.25;;;;;;;12.04;89.59;101427.06;8294049;28;20110;-60
2023/04/19 03:30:48;;;;;;;33.60;20.40;;;;;;;12.06;89.60;101431.34;8293702;28;20558;-60
2023/04/19 03:34:48;;;;;;;33.15;19.92;;;;;;;12.08;89.50;101423.09;8293998;28;20138;-60
2023/04/19 03:38:50;;;;;;;28.27;19.75;;;;;;;12.10;89.38;101415.69;8294044;28;20508;-60
2023/04/19 03:42:52;;;;;;;34.03;20.45;;;;;;;12.11;89.57;101414.69;8293410;28;20038;-60
2023/04/19 03:46:59;;;;;;;36.38;20.25;;;;;;;12.01;90.14;101416.47;8293723;28;20034;-60
2023/04/19 03:51:05;;;;;;;38.40;21.23;;;;;;;11.98;90.43;101412.13;8286567;28;20037;-60
2023/04/19 03:55:07;;;;;;;39.63;20.02;;;;;;;11.88;91.28;101412.06;8293021;28;20041;-64
2023/04/19 03:59:10;;;;;;;29.52;19.02;;;;;;;11.87;91.46;101404.06;8293924;28;20053;-64
2023/04/19 04:03:13;;;;;;;28.65;18.20;;;;;;;11.83;92.37;101408.84;8292934;28;20038;-64
2023/04/19 04:07:14;;;;;;;31.55;19.73;;;;;;;11.72;92.95;101406.16;8293206;28;20033;-64
2023/04/19 04:11:14;;;;;;;29.73;19.20;;;;;;;11.73;93.31;101407.91;8292423;28;20042;-64
2023/04/19 04:15:16;;;;;;;32.10;18.90;;;;;;;11.76;93.81;101413.06;8292486;28;20042;-64
2023/04/19 04:19:21;;;;;;;29.95;18.90;;;;;;;11.73;93.98;101413.31;8292956;28;20427;-64
2023/04/19 04:23:24;;;;;;;28.40;18.88;;;;;;;11.71;94.60;101414.41;8276097;28;20100;-64
2023/04/19 04:27:25;;;;;;;31.17;17.70;;;;;;;11.69;95.41;101416.41;8301932;28;20034;-64
2023/04/19 04:31:28;;;;;;;30.67;18.92;;;;;;;11.78;95.06;101416.50;8290279;28;20062;-64
2023/04/19 04:35:29;;;;;;;30.42;17.40;;;;;;;11.74;95.65;101409.63;8303364;28;20042;-64
2023/04/19 04:39:41;;;;;;;25.60;16.00;;;;;;;11.90;95.44;101410.06;8278460;28;20046;-63
2023/04/19 04:43:48;;;;;;;27.15;16.35;;;;;;;12.08;94.44;101412.25;8311074;28;20041;-64
2023/04/19 04:47:48;;;;;;;25.20;15.95;;;;;;;12.16;93.89;101426.00;8322416;28;20358;-60
2023/04/19 04:51:50;;;;;;;26.70;16.35;;;;;;;12.13;94.00;101418.16;8286456;28;20457;-60
2023/04/19 04:55:52;;;;;;;22.23;14.73;;;;;;;12.12;93.90;101419.13;8290440;28;20084;-60
2023/04/19 04:59:55;;;;;;;25.70;14.35;;;;;;;12.20;93.41;101424.78;8306293;28;20514;-58
2023/04/19 05:03:59;;;;;;;25.83;15.10;;;;;;;12.20;93.15;101422.06;8288742;28;20042;-58
2023/04/19 05:08:00;;;;;;;24.05;15.02;;;;;;;12.32;92.24;101415.59;8288033;28;20508;-58
2023/04/19 05:12:01;;;;;;;19.33;14.48;;;;;;;12.31;92.29;101408.44;8287641;28;20034;-59
2023/04/19 05:16:01;;;;;;;22.08;13.95;;;;;;;12.36;91.84;101422.47;8288106;28;20041;-58
2023/04/19 05:20:04;;;;;;;22.00;13.93;;;;;;;12.42;91.45;101427.38;8288561;28;20488;-58
2023/04/19 05:24:05;;;;;;;25.65;14.98;;;;;;;12.42;91.32;101421.97;8291521;28;20046;-59
2023/04/19 05:28:08;;;;;;;22.42;13.98;;;;;;;12.44;91.12;101420.00;8288511;28;20030;-59
2023/04/19 05:32:19;;;;;;;21.77;14.07;;;;;;;12.44;91.02;101426.25;8284913;28;20305;-62
2023/04/19 05:36:26;;;;;;;24.42;14.90;;;;;;;12.53;90.24;101416.50;8282644;28;20521;-63
2023/04/19 05:40:28;;;;;;;23.33;13.93;;;;;;;12.58;89.66;101411.53;8281419;28;20037;-62
2023/04/19 05:44:29;;;;;;;22.42;13.23;;;;;;;12.53;90.24;101408.34;8279555;28;20038;-62
2023/04/19 05:48:29;;;;;;;21.65;14.30;;;;;;;12.57;89.37;101409.81;8283898;28;20042;-62
2023/04/19 05:52:49;;;;;;;22.05;13.80;;;;;;;12.60;89.07;101404.97;8289518;28;20046;-58
2023/04/19 05:56:50;;;;;;;21.05;14.27;;;;;;;12.64;89.14;101403.72;8291011;28;20122;-58
2023/04/19 06:00:50;;;;;;;23.75;14.68;;;;;;;12.67;88.44;101402.59;8291366;28;20448;-58
2023/04/19 06:04:53;;;;;;;17.77;13.57;;;;;;;12.66;88.87;101409.03;8290549;28;20133;-59
2023/04/19 06:08:54;;;;;;;19.90;14.60;;;;;;;12.65;88.81;101401.84;8289328;28;20042;-58
2023/04/19 06:12:55;;;;;;;24.58;15.95;;;;;;;12.64;88.80;101405.56;8326359;28;20045;-58
2023/04/19 06:16:55;;;;;;;27.88;16.42;;;;;;;12.66;89.16;101414.44;8311025;28;20496;-58
2023/04/19 06:20:56;;;;;;;24.02;15.95;;;;;;;12.66;89.03;101409.03;8296038;28;20458;-58
2023/04/19 06:24:56;;;;;;;27.95;15.73;;;;;;;12.64;88.55;101416.41;8296172;28;20053;-58
2023/04/19 06:28:57;;;;;;;25.20;16.60;;;;;;;12.60;88.94;101409.53;8295044;28;20077;-60
2023/04/19 06:32:57;;;;;;;28.13;16.48;;;;;;;12.58;88.14;101422.38;8293044;28;20552;-62
2023/04/19 06:36:58;;;;;;;25.42;16.70;;;;;;;12.63;88.07;101426.41;8310366;28;20054;-62
2023/04/19 06:40:58;;;;;;;25.27;15.35;;;;;;;12.65;87.49;101418.13;8294806;28;20038;-62
2023/04/19 06:44:59;;;;;;;25.75;15.88;;;;;;;12.66;86.66;101428.00;8295081;28;20587;-62
2023/04/19 06:49:00;;;;;;;22.13;13.88;;;;;;;12.66;86.44;101409.03;8295080;28;20096;-58
2023/04/19 06:53:00;;;;;;;20.80;13.30;;;;;;;12.63;85.55;101410.13;8294209;28;20092;-58
2023/04/19 06:57:01;;;;;;;19.63;13.15;;;;;;;12.68;85.02;101409.72;8309916;28;20037;-60
2023/04/19 07:01:03;;;;;;;17.83;12.18;;;;;;;12.73;84.69;101402.06;8293008;28;20124;-61
2023/04/19 07:05:04;;;;;;;15.75;10.77;;;;;;;12.70;82.07;101422.19;8293810;28;20038;-61
2023/04/19 07:09:06;;;;;;;14.75;10.20;;;;;;;12.76;82.48;101409.94;8293928;28;20059;-61
2023/04/19 07:13:06;;;;;;;13.85;9.85;;;;;;;12.72;81.00;101408.50;8292723;28;20061;-61
2023/04/19 07:17:06;;;;;;;15.32;9.60;;;;;;;12.72;80.48;101403.91;8294276;28;20046;-59
2023/04/19 07:21:07;;;;;;;12.80;9.15;;;;;;;13.03;80.39;101404.84;8293764;28;20556;-59
2023/04/19 07:25:08;;;;;;;15.32;9.13;;;;;;;13.21;78.60;101395.09;8292079;28;20046;-59
2023/04/19 07:29:08;;;;;;;11.95;8.02;;;;;;;13.24;77.88;101400.25;8293499;28;20029;-59
2023/04/19 07:33:09;;;;;;;12.50;8.75;;;;;;;13.43;77.07;101400.31;8293047;28;20412;-58
2023/04/19 07:37:11;;;;;;;12.40;8.77;;;;;;;13.79;74.71;101407.88;8292906;28;20037;-58
2023/04/19 07:41:11;;;;;;;19.13;9.70;;;;;;;14.16;72.82;101411.66;8292781;28;20033;-59
2023/04/19 07:45:13;;;;;;;12.85;8.18;;;;;;;14.30;72.05;101397.66;8293148;28;20126;-58
2023/04/19 07:49:14;;;;;;;9.77;7.57;;;;;;;14.59;70.74;101398.53;8293273;28;20048;-58
2023/04/19 07:53:15;;;;;;;10.27;7.28;;;;;;;14.82;70.11;101397.19;8292132;28;20041;-58
2023/04/19 07:57:16;;;;;;;13.48;7.78;;;;;;;15.14;70.29;101394.09;8292408;28;20142;-63
2023/04/19 08:01:16;;;;;;;11.45;7.82;;;;;;;15.38;68.42;101389.00;8292466;28;20105;-64
2023/04/19 08:05:17;;;;;;;9.15;7.10;;;;;;;15.42;66.79;101394.00;8293034;28;20040;-63
2023/04/19 08:09:17;;;;;;;11.15;7.35;;;;;;;15.67;66.32;101386.97;8292337;28;20045;-63
2023/04/19 08:13:18;;;;;;;8.80;6.82;;;;;;;15.63;64.71;101393.75;8291458;28;20062;-63
2023/04/19 08:17:20;;;;;;;10.43;7.22;;;;;;;15.51;65.52;101382.22;8291894;28;20565;-63
2023/04/19 08:21:20;;;;;;;14.57;7.10;;;;;;;15.74;65.83;101378.03;8292208;28;20042;-63
2023/04/19 08:25:25;;;;;;;9.77;6.03;;;;;;;16.11;64.31;101379.81;8292071;28;20044;-63
2023/04/19 08:29:26;;;;;;;10.45;6.65;;;;;;;15.95;63.27;101390.56;8292127;28;20439;-63
2023/04/19 08:33:27;;;;;;;12.18;6.72;;;;;;;15.98;63.51;101384.81;8291887;28;20124;-63
2023/04/19 08:37:28;;;;;;;9.93;6.75;;;;;;;15.79;63.56;101369.41;8292109;28;20080;-63
2023/04/19 08:41:30;;;;;;;11.45;7.03;;;;;;;15.55;63.61;101360.94;8290832;28;20484;-63
2023/04/19 08:45:31;;;;;;;10.52;7.03;;;;;;;15.88;62.54;101363.03;8291816;28;20096;-63
2023/04/19 08:49:35;;;;;;;11.38;8.00;;;;;;;15.93;61.42;101365.31;8290236;28;20464;-63
2023/04/19 08:53:36;;;;;;;10.45;7.00;;;;;;;15.95;61.95;101366.00;8281920;28;20037;-60
2023/04/19 08:57:37;;;;;;;9.27;6.75;;;;;;;16.12;60.67;101359.69;8291217;28;20069;-59
2023/04/19 09:01:37;;;;;;;9.80;6.75;;;;;;;16.30;60.40;101352.38;8291174;28;20116;-60
2023/04/19 09:05:37;;;;;;;12.48;6.75;;;;;;;16.17;60.07;101351.91;8291680;28;20033;-60
2023/04/19 09:09:41;;;;;;;10.25;6.40;;;;;;;16.39;58.98;101340.50;8290808;28;20045;-60
2023/04/19 09:13:43;;;;;;;7.90;6.60;;;;;;;16.38;58.16;101355.19;8291110;28;20044;-60
2023/04/19 09:18:02;;;;;;;9.38;6.50;;;;;;;16.53;57.53;101349.00;8291436;28;20054;-60
2023/04/19 09:22:12;;;;;;;10.48;6.63;;;;;;;16.61;56.73;101334.56;8290700;28;20045;-63
2023/04/19 09:26:12;;;;;;;8.52;6.65;;;;;;;16.71;56.79;101340.81;8289501;28;20044;-63
2023/04/19 09:30:13;;;;;;;9.30;6.70;;;;;;;17.05;56.08;101322.59;8294293;28;20037;-63
2023/04/19 09:34:15;;;;;;;9.60;7.05;;;;;;;16.98;54.67;101332.44;8298132;28;20116;-63
2023/04/19 09:38:16;;;;;;;9.18;6.47;;;;;;;17.51;54.56;101324.88;8298215;28;20112;-63
2023/04/19 09:42:17;;;;;;;9.93;6.00;;;;;;;18.40;51.38;101307.59;8296925;28;20025;-63
2023/04/19 09:46:35;;;;;;;8.80;5.55;;;;;;;19.56;49.04;101312.44;8297820;28;20029;-63
2023/04/19 09:50:50;;;;;;;8.65;6.18;;;;;;;20.49;46.66;101312.19;8295287;28;20088;-62
2023/04/19 09:54:52;;;;;;;12.55;5.07;;;;;;;20.77;46.11;101305.03;8296602;28;20068;-62
2023/04/19 09:58:53;;;;;;;9.77;5.32;;;;;;;20.43;46.44;101296.44;8296672;28;20042;-62
2023/04/19 10:02:56;;;;;;;8.50;5.07;;;;;;;21.09;44.97;101293.72;8295983;28;20068;-62
2023/04/19 10:06:58;;;;;;;7.90;5.47;;;;;;;20.96;44.67;101296.28;8296545;28;20037;-62
2023/04/19 10:10:58;;;;;;;6.82;5.63;;;;;;;21.00;45.07;101294.84;8295821;28;20038;-62
2023/04/19 10:14:59;;;;;;;8.63;5.63;;;;;;;21.07;44.28;101293.03;8295895;28;20037;-62
2023/04/19 10:19:02;;;;;;;6.43;5.13;;;;;;;20.28;45.15;101306.53;8296149;28;20041;-62
2023/04/19 10:23:07;;;;;;;8.13;4.90;;;;;;;21.08;43.88;101283.75;8295503;28;20041;-60
2023/04/19 10:27:10;;;;;;;8.73;4.90;;;;;;;21.26;43.10;101295.25;8295633;28;20038;-61
2023/04/19 10:31:13;;;;;;;5.18;4.57;;;;;;;21.11;43.29;101275.13;8294054;28;20529;-61
2023/04/19 10:35:18;;;;;;;7.00;4.55;;;;;;;20.71;44.41;101303.03;8295811;28;20045;-61
2023/04/19 10:39:38;;;;;;;5.72;4.63;;;;;;;21.14;43.97;101289.34;8295631;28;20468;-61
2023/04/19 10:43:44;;;;;;;6.50;4.60;;;;;;;21.02;43.00;101290.03;8293852;28;20548;-61
2023/04/19 10:47:44;;;;;;;8.90;4.88;;;;;;;21.63;41.63;101292.34;8295903;28;20038;-61
2023/04/19 10:51:51;;;;;;;8.30;4.90;;;;;;;21.20;42.38;101274.00;8294646;28;20041;-61
2023/04/19 10:55:52;;;;;;;4.70;4.18;;;;;;;22.31;40.81;101278.03;8294713;28;20112;-61
2023/04/19 11:00:20;;;;;;;6.47;4.47;;;;;;;21.96;40.48;101268.78;8294723;28;20050;-61
2023/04/19 11:04:26;;;;;;;6.68;4.25;;;;;;;22.14;40.36;101255.41;8294818;28;20121;-61
2023/04/19 11:08:26;;;;;;;9.05;4.15;;;;;;;22.20;40.62;101257.38;8294680;28;20037;-61
2023/04/19 11:12:26;;;;;;;7.57;3.95;;;;;;;22.75;40.19;101246.41;8293946;28;20113;-61
2023/04/19 11:16:27;;;;;;;6.40;4.28;;;;;;;21.51;41.09;101249.84;8294392;28;20053;-61
2023/04/19 11:20:27;;;;;;;8.55;4.20;;;;;;;21.17;41.95;101236.69;8294256;28;20052;-61
2023/04/19 11:24:28;;;;;;;5.25;3.53;;;;;;;22.49;40.71;101231.56;8294383;28;20038;-61
2023/04/19 11:28:28;;;;;;;6.07;4.13;;;;;;;21.69;39.67;101231.00;8293729;28;20062;-61
2023/04/19 11:32:28;;;;;;;7.18;3.63;;;;;;;21.11;41.77;101225.63;8293472;28;20348;-61
2023/04/19 11:36:32;;;;;;;6.85;3.60;;;;;;;20.26;41.78;101204.22;8293553;28;20266;-59
2023/04/19 11:40:33;;;;;;;6.57;3.57;;;;;;;21.46;40.43;101224.78;8290831;28;20416;-59
2023/04/19 11:44:33;;;;;;;7.45;3.72;;;;;;;21.38;39.79;101215.81;8288346;28;20296;-61
2023/04/19 11:48:34;;;;;;;8.65;3.55;;;;;;;21.38;40.89;101211.16;8289076;28;20050;-60
2023/04/19 11:52:34;;;;;;;7.03;4.40;;;;;;;20.39;41.11;101207.19;8291114;28;20446;-59
2023/04/19 11:56:35;;;;;;;8.38;3.88;;;;;;;18.65;42.38;101207.94;8293181;28;20042;-59
2023/04/19 12:00:35;;;;;;;3.72;3.35;;;;;;;18.09;43.58;101198.94;8292647;28;20058;-59
2023/04/19 12:04:36;;;;;;;5.20;3.58;;;;;;;17.99;42.84;101199.09;8291804;28;20042;-61
2023/04/19 12:08:41;;;;;;;7.63;3.83;;;;;;;17.72;43.54;101198.59;8291788;28;20121;-61
2023/04/19 12:12:41;;;;;;;6.53;3.35;;;;;;;17.45;42.66;101217.00;8290900;28;20069;-62
2023/04/19 12:16:43;;;;;;;7.30;2.85;;;;;;;17.18;43.74;101186.34;8288137;28;20042;-61
2023/04/19 12:20:46;;;;;;;5.95;4.25;;;;;;;17.35;43.46;101199.00;8288855;28;20133;-61
2023/04/19 12:24:49;;;;;;;7.68;3.22;;;;;;;17.07;43.28;101212.09;8292204;28;20033;-61
2023/04/19 12:28:50;;;;;;;5.53;3.20;;;;;;;16.98;43.37;101201.28;8292132;28;20045;-63
2023/04/19 12:32:54;;;;;;;4.55;3.08;;;;;;;16.89;42.39;101196.81;8291441;28;20041;-61
2023/04/19 12:36:55;;;;;;;5.40;3.03;;;;;;;16.91;43.55;101189.31;8291627;28;20042;-64
2023/04/19 12:40:55;;;;;;;5.53;2.83;;;;;;;16.99;43.19;101186.63;8290593;28;20167;-63
2023/04/19 12:44:56;;;;;;;4.38;2.83;;;;;;;16.71;42.67;101176.97;8291008;28;20030;-64
2023/04/19 12:48:56;;;;;;;7.25;2.83;;;;;;;16.64;42.88;101170.41;8283915;28;20057;-63
2023/04/19 12:52:56;;;;;;;4.38;2.60;;;;;;;16.79;43.36;101177.84;8282285;28;20500;-64
2023/04/19 12:56:57;;;;;;;4.18;2.65;;;;;;;16.70;43.58;101172.50;8270339;28;20050;-64
2023/04/19 13:00:57;;;;;;;5.28;3.15;;;;;;;16.52;43.01;101182.63;8272076;28;20042;-64
2023/04/19 13:04:58;;;;;;;4.43;2.95;;;;;;;16.34;42.72;101173.63;8275032;28;20525;-62
2023/04/19 13:08:58;;;;;;;3.42;2.75;;;;;;;16.36;42.52;101166.16;8270698;28;20483;-61
2023/04/19 13:12:59;;;;;;;6.97;3.10;;;;;;;16.23;43.12;101152.09;8269361;28;20385;-61
2023/04/19 13:17:00;;;;;;;7.97;2.80;;;;;;;16.29;42.45;101159.63;8282504;28;20049;-61
2023/04/19 13:21:01;;;;;;;8.27;3.30;;;;;;;16.32;42.23;101142.94;8283388;28;20562;-61
2023/04/19 13:25:01;;;;;;;6.57;2.67;;;;;;;16.35;42.59;101150.81;8284570;28;20081;-61
2023/04/19 13:29:02;;;;;;;11.13;2.92;;;;;;;16.18;41.08;101146.25;8282946;28;20100;-62
2023/04/19 13:33:03;;;;;;;7.22;2.72;;;;;;;16.30;41.43;101150.41;8283060;28;20115;-61
2023/04/19 13:37:03;;;;;;;4.55;2.80;;;;;;;16.25;40.27;101141.88;8282176;28;20118;-61
2023/04/19 13:41:04;;;;;;;5.95;2.85;;;;;;;16.10;39.98;101138.03;8284275;28;20046;-60
2023/04/19 13:45:05;;;;;;;6.18;2.85;;;;;;;16.30;40.91;101139.50;8281535;28;20188;-60
2023/04/19 13:49:05;;;;;;;7.70;2.75;;;;;;;16.43;40.34;101123.53;8282330;28;20049;-60
2023/04/19 13:53:06;;;;;;;3.58;3.00;;;;;;;16.62;40.00;101128.78;8276272;28;20359;-60
2023/04/19 13:57:06;;;;;;;6.10;3.17;;;;;;;16.52;39.99;101128.03;8283986;28;20034;-59
2023/04/19 14:01:07;;;;;;;6.18;3.03;;;;;;;16.40;38.79;101127.44;8284045;28;20559;-60
2023/04/19 14:05:08;;;;;;;6.10;3.22;;;;;;;16.26;38.53;101106.25;8284029;28;20507;-60
2023/04/19 14:09:08;;;;;;;5.25;3.00;;;;;;;16.29;37.75;101121.44;8283147;28;20069;-61
2023/04/19 14:13:09;;;;;;;5.55;2.63;;;;;;;16.26;37.80;101111.72;8291247;28;20487;-61
2023/04/19 14:17:09;;;;;;;6.57;3.20;;;;;;;16.36;37.50;101111.56;8282476;28;20092;-60
2023/04/19 14:21:09;;;;;;;6.03;2.90;;;;;;;16.32;38.51;101104.72;8304711;28;20029;-60
2023/04/19 14:25:11;;;;;;;6.82;3.10;;;;;;;16.19;38.54;101098.88;8287865;28;20117;-60
2023/04/19 14:29:11;;;;;;;5.90;2.78;;;;;;;16.35;38.19;101101.69;8290076;28;20070;-60
2023/04/19 14:33:12;;;;;;;3.05;2.35;;;;;;;16.33;36.86;101084.59;8279078;28;20042;-60
2023/04/19 14:37:12;;;;;;;3.67;2.67;;;;;;;16.25;36.43;101070.94;8256981;28;20038;-60
2023/04/19 14:41:13;;;;;;;6.20;2.67;;;;;;;16.32;36.63;101080.16;8295955;28;20041;-60
2023/04/19 14:45:13;;;;;;;10.57;3.05;;;;;;;16.32;37.09;101078.31;8316136;28;20049;-60
2023/04/19 14:49:14;;;;;;;6.85;2.78;;;;;;;16.33;36.83;101068.22;8288943;28;20442;-60
2023/04/19 14:53:15;;;;;;;4.38;2.63;;;;;;;16.17;37.36;101068.16;8288833;28;20041;-60
2023/04/19 14:57:15;;;;;;;7.82;3.95;;;;;;;16.13;39.29;101058.59;8286621;28;20464;-59
2023/04/19 15:01:16;;;;;;;7.10;3.15;;;;;;;16.11;39.01;101057.91;8288591;28;20033;-59
2023/04/19 15:05:17;;;;;;;5.85;3.80;;;;;;;16.01;39.36;101058.00;8288418;28;20038;-59
2023/04/19 15:09:17;;;;;;;6.10;3.13;;;;;;;16.03;39.67;101055.97;8288662;28;20325;-59
2023/04/19 15:13:20;;;;;;;7.95;4.53;;;;;;;15.98;38.38;101049.31;8287125;28;20054;-59
2023/04/19 15:17:20;;;;;;;6.30;2.83;;;;;;;16.00;37.73;101061.75;8287070;28;20037;-59
2023/04/19 15:21:21;;;;;;;4.47;2.95;;;;;;;15.85;36.92;101049.75;8286514;28;20048;-59
2023/04/19 15:25:22;;;;;;;7.15;2.83;;;;;;;15.79;37.48;101041.38;8280783;28;20514;-59
2023/04/19 15:29:22;;;;;;;3.85;2.65;;;;;;;15.93;37.35;101043.47;8261070;28;20038;-58
2023/04/19 15:33:22;;;;;;;5.70;2.70;;;;;;;15.90;37.15;101054.72;8268480;28;20126;-59
2023/04/19 15:37:23;;;;;;;7.80;2.78;;;;;;;15.85;37.74;101035.28;8268090;28;20605;-59
2023/04/19 15:41:24;;;;;;;6.95;2.92;;;;;;;15.98;38.18;101035.69;8264814;28;20065;-59
2023/04/19 15:45:24;;;;;;;4.28;3.22;;;;;;;16.00;38.36;101039.06;8281474;28;20062;-59
2023/04/19 15:49:25;;;;;;;3.25;2.83;;;;;;;15.90;37.71;101043.81;8284004;28;20489;-59
2023/04/19 15:53:26;;;;;;;4.50;2.85;;;;;;;15.80;37.79;101033.03;8283424;28;20429;-63
2023/04/19 15:57:26;;;;;;;5.00;3.20;;;;;;;15.73;38.45;101055.66;8274000;28;20412;-60
2023/04/19 16:01:26;;;;;;;5.40;3.08;;;;;;;15.64;38.58;101050.13;8282248;28;20033;-60
2023/04/19 16:05:27;;;;;;;4.88;3.15;;;;;;;15.73;39.54;101050.19;8279412;28;20037;-59
2023/04/19 16:09:27;;;;;;;6.85;3.28;;;;;;;15.60;39.07;101043.28;8284158;28;20488;-60
2023/04/19 16:13:28;;;;;;;4.35;2.72;;;;;;;15.60;39.17;101054.19;8302966;28;20404;-59
2023/04/19 16:17:28;;;;;;;5.18;2.95;;;;;;;15.57;39.53;101059.09;8284793;28;20092;-60
2023/04/19 16:21:29;;;;;;;5.28;3.30;;;;;;;15.47;39.67;101042.84;8283729;28;20042;-60
2023/04/19 16:25:30;;;;;;;4.03;3.40;;;;;;;15.48;40.49;101050.00;8284324;28;20053;-60
2023/04/19 16:29:30;;;;;;;9.10;3.35;;;;;;;15.34;41.23;101064.16;8277108;28;20121;-59
2023/04/19 16:33:31;;;;;;;3.92;2.92;;;;;;;15.31;40.35;101052.75;8271565;28;20045;-60
2023/04/19 16:37:32;;;;;;;3.90;3.33;;;;;;;15.43;40.83;101051.47;8284307;28;20122;-66
2023/04/19 16:41:32;;;;;;;9.27;3.15;;;;;;;15.38;40.54;101049.25;8283670;28;20067;-66
2023/04/19 16:45:33;;;;;;;5.70;3.10;;;;;;;15.40;40.05;101049.94;8282590;28;20038;-65
2023/04/19 16:49:33;;;;;;;7.63;3.13;;;;;;;15.36;39.77;101051.25;8287836;28;20046;-65
2023/04/19 16:53:33;;;;;;;4.88;3.10;;;;;;;15.27;39.99;101041.28;8280589;28;20200;-65
2023/04/19 16:57:35;;;;;;;3.70;3.00;;;;;;;15.15;40.62;101037.09;8283318;28;20040;-63
2023/04/19 17:01:35;;;;;;;6.80;3.13;;;;;;;15.10;40.57;101033.97;8282392;28;20038;-64
2023/04/19 17:05:36;;;;;;;4.13;2.92;;;;;;;15.09;40.76;101036.88;8278736;28;20041;-65
2023/04/19 17:09:36;;;;;;;3.40;2.33;;;;;;;15.07;40.50;101045.19;8275542;28;20048;-66
2023/04/19 17:13:37;;;;;;;4.55;2.60;;;;;;;14.96;40.04;101037.28;8296655;28;20038;-66
2023/04/19 17:17:37;;;;;;;3.70;2.33;;;;;;;14.93;39.96;101032.16;8281010;28;20046;-65
2023/04/19 17:21:38;;;;;;;5.38;3.13;;;;;;;14.90;40.69;101040.63;8282931;28;20052;-66
2023/04/19 17:25:39;;;;;;;3.08;2.45;;;;;;;14.81;40.23;101036.09;8283472;28;20349;-66
2023/04/19 17:29:40;;;;;;;5.47;2.70;;;;;;;14.79;40.26;101023.69;8282987;28;20393;-65
2023/04/19 17:33:41;;;;;;;8.75;3.00;;;;;;;14.76;40.75;101023.97;8281459;28;20516;-66
2023/04/19 17:37:42;;;;;;;5.68;2.50;;;;;;;14.64;41.19;101031.50;8283054;28;20038;-66
2023/04/19 17:41:43;;;;;;;6.10;2.78;;;;;;;14.52;41.62;101035.44;8283322;28;20411;-66
2023/04/19 17:45:44;;;;;;;4.10;2.53;;;;;;;14.44;42.22;101029.94;8283466;28;20049;-66
2023/04/19 17:49:45;;;;;;;3.83;2.10;;;;;;;14.39;41.74;101037.69;8283338;28;20125;-66
2023/04/19 17:53:46;;;;;;;5.25;2.80;;;;;;;14.32;41.16;101025.72;8290176;28;20049;-66
2023/04/19 17:57:46;;;;;;;3.78;2.30;;;;;;;14.34;40.97;101034.59;8289501;28;20049;-66
2023/04/19 18:01:47;;;;;;;2.70;1.90;;;;;;;14.31;40.72;101034.88;8289626;28;20073;-65
2023/04/19 18:05:48;;;;;;;9.48;2.70;;;;;;;14.18;41.50;101028.88;8290893;28;20038;-66
2023/04/19 18:09:48;;;;;;;3.30;1.90;;;;;;;14.14;41.11;101027.47;8290366;28;20623;-66
2023/04/19 18:13:49;;;;;;;5.20;2.25;;;;;;;14.06;40.87;101031.97;8289208;28;20064;-66
2023/04/19 18:17:49;;;;;;;4.43;2.00;;;;;;;14.00;40.58;101032.56;8274155;28;20116;-65
2023/04/19 18:21:50;;;;;;;4.80;1.88;;;;;;;13.94;41.11;101044.91;8267164;28;20084;-60
2023/04/19 18:25:53;;;;;;;3.65;1.98;;;;;;;13.98;41.04;101042.72;8289905;28;20034;-59
2023/04/19 18:29:54;;;;;;;7.18;2.35;;;;;;;13.83;41.34;101045.09;8303892;28;20412;-60
2023/04/19 18:33:54;;;;;;;3.33;2.28;;;;;;;13.78;41.31;101047.38;8286051;28;20049;-60